MDJB

La Isabela International Airport

La Isabela, Dominican Republic
TAF MDJB 252200Z 2600/2700 00000KT 9999 SCT016 PROB30 2601/2607 8000 -TSRA FEW014CB BKN018 BECMG 2614/2616 18010KT
Issued Valid From Valid To
Apr-25 @ 22:00 UTC
(6 hours ago)
Apr-26 @ 00:00 UTC
(4 hours ago)
Apr-27 @ 00:00 UTC
(in 20 hours)
Apr-26 @ 00:00 to Apr-26 @ 14:00
TAF MDJB 252200Z 2600/2700 00000KT 9999 SCT016
Visibility Clouds
10,000+ meters
  • Scattered at 1,600' AGL
Probable  (Probability 30%) Apr-26 @ 01:00 to Apr-26 @ 07:00
PROB30 2601/2607 8000 -TSRA FEW014CB BKN018
Visibility Clouds Conditions
7,998 meters
  • Few at 1,400' AGL
  • Broken at 1,800' AGL
  • Light Thunderstorm
  • Light Rain
Becoming Apr-26 @ 14:00 to Apr-27 @ 00:00
BECMG 2614/2616 18010KT
Wind Visibility Clouds
180° at 10 knots 10,000+ meters
  • Scattered at 1,600' AGL
TAF MDJB 252200Z 2600/2700 00000KT 9999 SCT016 PROB30 2601/2607 8000 -TSRA FEW014CB BKN018 BECMG 2614/2616 18010KT
Issued Apr-25 @ 22:00 UTC
(6 hours ago)
Valid From Apr-26 @ 00:00 UTC
(4 hours ago)
Valid To Apr-27 @ 00:00 UTC
(in 20 hours)
Apr-26 @ 00:00 - Apr-26 @ 14:00
Clouds
  • Scattered at 1,600' AGL
Probability 30% Probable Apr-26 @ 01:00 - Apr-26 @ 07:00
Clouds
  • Few at 1,400' AGL
  • Broken at 1,800' AGL
Conditions
  • Light Thunderstorm
  • Light Rain
Becoming Apr-26 @ 14:00 - Apr-27 @ 00:00
Wind Visibility
180° at 10 knots 10,000+ meters
Clouds
  • Scattered at 1,600' AGL